Time;durP1;ratioP1;P1;durP2;ratioP2;P2;SDS_P1;SDS_P2;PMS_P1;PMS_P2;Temp;Humidity;BMP_temperature;BMP_pressure;BME280_temperature;BME280_humidity;BME280_pressure;Samples;Min_cycle;Max_cycle;Signal;HPM_P1;HPM_P2
2021/04/07 00:01:52;;;;;;;2.97;0.80;;;2.10;99.90;;;;;;5062644;28;20240;-83
2021/04/07 00:04:18;;;;;;;6.53;1.33;;;2.30;99.90;;;;;;5089491;28;20206;-84
2021/04/07 00:06:45;;;;;;;2.60;0.73;;;2.30;99.90;;;;;;5088756;28;20665;-83
2021/04/07 00:09:11;;;;;;;2.63;0.67;;;2.30;99.90;;;;;;5073466;28;20203;-82
2021/04/07 00:11:38;;;;;;;3.90;0.67;;;2.20;99.90;;;;;;5094097;28;20206;-81
2021/04/07 00:14:09;;;;;;;3.60;0.87;;;2.30;99.90;;;;;;5077206;28;20202;-83
2021/04/07 00:16:36;;;;;;;6.03;0.80;;;2.20;99.90;;;;;;5092700;28;20560;-83
2021/04/07 00:19:06;;;;;;;4.13;1.10;;;2.20;99.90;;;;;;5086655;28;20273;-82
2021/04/07 00:21:33;;;;;;;4.03;0.80;;;2.30;99.90;;;;;;5085020;28;20203;-82
2021/04/07 00:24:00;;;;;;;2.97;0.80;;;2.40;99.90;;;;;;5087711;28;21357;-81
2021/04/07 00:26:26;;;;;;;9.53;1.20;;;2.30;99.90;;;;;;5091984;28;20230;-83
2021/04/07 00:28:52;;;;;;;7.27;1.50;;;2.40;99.90;;;;;;5075978;28;20208;-84
2021/04/07 00:31:20;;;;;;;2.73;0.93;;;2.50;99.90;;;;;;5075223;28;20203;-83
2021/04/07 00:33:46;;;;;;;2.57;0.80;;;2.50;99.90;;;;;;5076337;28;20202;-81
2021/04/07 00:36:13;;;;;;;5.23;1.30;;;2.20;99.90;;;;;;5075562;28;20226;-83
2021/04/07 00:38:39;;;;;;;2.70;0.70;;;2.40;99.90;;;;;;5079584;28;20195;-81
2021/04/07 00:41:08;;;;;;;4.07;0.70;;;2.50;99.90;;;;;;5062314;28;20215;-81
2021/04/07 00:43:34;;;;;;;4.43;0.67;;;2.60;99.90;;;;;;5072292;28;20272;-81
2021/04/07 00:46:01;;;;;;;2.90;0.80;;;2.30;99.90;;;;;;5075159;28;20193;-82
2021/04/07 00:48:28;;;;;;;2.90;0.30;;;2.30;99.90;;;;;;5089561;28;20204;-81
2021/04/07 00:50:55;;;;;;;2.83;0.70;;;2.30;99.90;;;;;;5077803;28;20587;-82
2021/04/07 00:53:21;;;;;;;1.47;0.60;;;2.40;99.90;;;;;;5074211;28;20199;-82
2021/04/07 00:55:49;;;;;;;6.47;0.70;;;2.40;99.90;;;;;;5079263;28;20199;-83
2021/04/07 00:58:16;;;;;;;6.60;0.80;;;2.50;99.90;;;;;;5089367;28;20196;-81
2021/04/07 01:00:43;;;;;;;3.20;0.37;;;2.50;99.90;;;;;;5081302;28;20195;-82
2021/04/07 01:03:12;;;;;;;1.43;0.70;;;2.50;99.90;;;;;;5079756;28;20203;-83
2021/04/07 01:05:42;;;;;;;1.90;1.37;;;2.60;99.90;;;;;;5070677;28;21039;-82
2021/04/07 01:08:08;;;;;;;4.63;0.93;;;2.60;99.90;;;;;;5088572;28;20859;-83
2021/04/07 01:10:37;;;;;;;2.40;0.80;;;2.50;99.90;;;;;;5094959;28;20215;-81
2021/04/07 01:13:04;;;;;;;2.30;0.90;;;2.30;99.90;;;;;;5091431;28;20202;-81
2021/04/07 01:15:31;;;;;;;2.33;1.20;;;2.30;99.90;;;;;;5096851;28;20193;-81
2021/04/07 01:17:58;;;;;;;4.30;1.23;;;2.00;99.90;;;;;;5094301;28;20211;-82
2021/04/07 01:20:26;;;;;;;8.57;1.27;;;1.90;99.90;;;;;;5089758;28;20199;-81
2021/04/07 01:23:04;;;;;;;4.10;1.37;;;1.60;99.90;;;;;;5083785;28;20567;-82
2021/04/07 01:25:30;;;;;;;4.83;2.20;;;1.60;99.90;;;;;;5094619;28;20231;-83
2021/04/07 01:27:58;;;;;;;2.93;1.47;;;1.50;99.90;;;;;;5077539;28;20726;-82
2021/04/07 01:30:25;;;;;;;1.93;1.50;;;1.50;99.90;;;;;;5098829;28;20225;-81
2021/04/07 01:32:51;;;;;;;4.60;1.70;;;1.50;99.90;;;;;;5088650;28;20199;-83
2021/04/07 01:35:19;;;;;;;4.03;2.03;;;1.60;99.90;;;;;;5072861;28;20207;-81
2021/04/07 01:37:45;;;;;;;4.57;1.77;;;1.50;99.90;;;;;;5094489;28;20212;-81
2021/04/07 01:40:14;;;;;;;6.50;1.73;;;1.60;99.90;;;;;;5092736;28;20218;-83
2021/04/07 01:42:45;;;;;;;4.20;1.40;;;1.60;99.90;;;;;;5069833;28;20196;-81
2021/04/07 01:45:14;;;;;;;4.43;1.33;;;1.60;99.90;;;;;;5073207;28;20238;-81
2021/04/07 01:47:40;;;;;;;5.57;1.40;;;1.40;99.90;;;;;;5086943;28;20210;-82
2021/04/07 01:50:08;;;;;;;1.57;1.13;;;1.40;99.90;;;;;;5071106;28;20267;-81
2021/04/07 01:52:35;;;;;;;7.53;1.50;;;1.40;99.90;;;;;;5090129;28;20204;-81
2021/04/07 01:55:03;;;;;;;4.90;1.37;;;1.40;99.90;;;;;;5089335;28;20297;-81
2021/04/07 01:57:30;;;;;;;1.20;0.90;;;1.50;99.90;;;;;;5082877;28;20240;-83
2021/04/07 01:59:56;;;;;;;3.90;1.07;;;1.50;99.90;;;;;;5090745;28;20200;-80
2021/04/07 02:02:23;;;;;;;1.67;1.17;;;1.40;99.90;;;;;;5088994;28;20204;-82
2021/04/07 02:04:49;;;;;;;1.73;1.13;;;1.60;99.90;;;;;;5073723;28;20237;-81
2021/04/07 02:07:16;;;;;;;3.63;1.23;;;1.70;99.90;;;;;;5074538;28;20206;-82
2021/04/07 02:09:44;;;;;;;1.20;0.90;;;1.60;99.90;;;;;;5051143;28;20206;-82
2021/04/07 02:12:12;;;;;;;2.90;1.27;;;1.90;99.90;;;;;;5083703;28;20271;-82
2021/04/07 02:14:39;;;;;;;5.37;1.20;;;2.00;99.90;;;;;;5086426;28;20581;-81
2021/04/07 02:17:06;;;;;;;7.60;1.60;;;2.10;99.90;;;;;;5083959;28;20218;-82
2021/04/07 02:19:35;;;;;;;9.33;1.53;;;2.10;99.90;;;;;;5067485;28;20204;-81
2021/04/07 02:22:13;;;;;;;7.03;1.37;;;2.10;99.90;;;;;;5092295;28;20252;-81
2021/04/07 02:24:46;;;;;;;3.20;0.90;;;2.20;99.90;;;;;;5087337;28;20193;-80
2021/04/07 02:27:24;;;;;;;3.97;1.60;;;2.20;99.90;;;;;;5082710;28;20210;-81
2021/04/07 02:29:53;;;;;;;2.47;0.93;;;2.30;99.90;;;;;;5087391;28;20632;-80
2021/04/07 02:32:20;;;;;;;2.83;1.20;;;2.20;99.90;;;;;;5089355;28;20633;-81
2021/04/07 02:34:47;;;;;;;4.33;0.70;;;2.30;99.90;;;;;;5086190;28;20208;-81
2021/04/07 02:37:16;;;;;;;2.63;1.23;;;2.10;99.90;;;;;;5071917;28;20222;-80
2021/04/07 02:39:44;;;;;;;3.60;1.00;;;1.90;99.90;;;;;;5091706;28;20279;-80
2021/04/07 02:42:11;;;;;;;1.47;1.03;;;1.90;99.90;;;;;;5079914;28;20550;-82
2021/04/07 02:44:39;;;;;;;5.20;0.50;;;1.90;99.90;;;;;;5073689;28;20227;-82
2021/04/07 02:47:06;;;;;;;3.27;1.30;;;2.00;99.90;;;;;;5083415;28;20287;-81
2021/04/07 02:49:33;;;;;;;4.43;0.93;;;1.90;99.90;;;;;;5091022;28;20265;-82
2021/04/07 02:51:59;;;;;;;4.37;1.00;;;1.90;99.90;;;;;;5085059;28;20663;-82
2021/04/07 02:54:26;;;;;;;2.93;1.17;;;1.80;99.90;;;;;;5073246;28;20199;-82
2021/04/07 02:56:55;;;;;;;1.73;1.07;;;1.70;99.90;;;;;;5088453;28;20214;-82
2021/04/07 02:59:21;;;;;;;2.27;1.37;;;1.80;99.90;;;;;;5086893;28;20209;-81
2021/04/07 03:01:48;;;;;;;5.53;1.70;;;1.70;99.90;;;;;;5067127;28;20231;-81
2021/04/07 03:04:15;;;;;;;9.30;1.43;;;1.60;99.90;;;;;;5071241;28;20203;-82
2021/04/07 03:06:43;;;;;;;2.00;0.93;;;1.50;99.90;;;;;;5084446;28;20256;-81
2021/04/07 03:09:10;;;;;;;4.60;1.33;;;1.50;99.90;;;;;;5080940;28;20666;-81
2021/04/07 03:11:38;;;;;;;5.03;1.10;;;1.50;99.90;;;;;;5069133;28;20260;-83
2021/04/07 03:14:05;;;;;;;3.30;1.40;;;1.50;99.90;;;;;;5065106;28;20210;-82
2021/04/07 03:16:32;;;;;;;6.00;1.27;;;1.40;99.90;;;;;;5083117;28;20207;-81
2021/04/07 03:18:59;;;;;;;6.47;2.13;;;1.40;99.90;;;;;;5074715;28;20214;-80
2021/04/07 03:21:26;;;;;;;5.03;1.10;;;1.30;99.90;;;;;;5069666;28;20209;-82
2021/04/07 03:23:52;;;;;;;5.40;1.10;;;1.30;99.90;;;;;;5088461;28;20844;-81
2021/04/07 03:26:19;;;;;;;1.77;0.60;;;1.40;99.90;;;;;;5071672;28;20206;-82
2021/04/07 03:28:46;;;;;;;5.87;1.17;;;1.50;99.90;;;;;;5085415;28;20191;-81
2021/04/07 03:31:12;;;;;;;4.07;1.10;;;1.50;99.90;;;;;;5083431;28;20199;-81
2021/04/07 03:33:39;;;;;;;7.70;1.33;;;1.50;99.90;;;;;;5069949;28;20203;-81
2021/04/07 03:36:06;;;;;;;6.60;1.27;;;1.60;99.90;;;;;;5068306;28;20195;-81
2021/04/07 03:38:33;;;;;;;6.47;1.00;;;1.70;99.90;;;;;;5084422;28;20248;-82
2021/04/07 03:41:00;;;;;;;5.47;1.83;;;1.70;99.90;;;;;;5086575;28;20277;-81
2021/04/07 03:43:27;;;;;;;2.77;1.03;;;1.70;99.90;;;;;;5083531;28;20225;-81
2021/04/07 03:45:56;;;;;;;5.57;1.20;;;1.60;99.90;;;;;;5090898;28;20638;-80
2021/04/07 03:48:26;;;;;;;6.30;1.20;;;1.70;99.90;;;;;;5082983;28;20198;-81
2021/04/07 03:50:54;;;;;;;2.17;1.07;;;1.80;99.90;;;;;;5085477;28;20524;-81
2021/04/07 03:53:21;;;;;;;3.00;1.00;;;2.00;99.90;;;;;;5087670;28;20218;-82
2021/04/07 03:55:53;;;;;;;3.87;1.10;;;2.00;99.90;;;;;;5086330;28;20222;-81
2021/04/07 03:58:20;;;;;;;3.70;1.07;;;2.00;99.90;;;;;;5081864;28;20211;-81
2021/04/07 04:00:47;;;;;;;3.23;0.70;;;1.90;99.90;;;;;;5087403;28;20192;-82
2021/04/07 04:03:14;;;;;;;3.87;0.93;;;1.90;99.90;;;;;;5084056;28;20655;-81
2021/04/07 04:05:40;;;;;;;4.77;1.20;;;2.00;99.90;;;;;;5083628;28;20562;-82
2021/04/07 04:08:07;;;;;;;5.93;1.00;;;2.10;99.90;;;;;;5067024;28;20206;-80
2021/04/07 04:10:34;;;;;;;2.63;1.13;;;2.00;99.90;;;;;;5081661;28;20207;-80
2021/04/07 04:13:02;;;;;;;1.67;0.73;;;2.10;99.90;;;;;;5072137;28;20272;-79
2021/04/07 04:15:28;;;;;;;6.90;1.80;;;2.20;99.90;;;;;;5074998;28;20761;-82
2021/04/07 04:17:55;;;;;;;5.07;1.60;;;2.30;99.90;;;;;;5090567;28;20226;-80
2021/04/07 04:20:21;;;;;;;3.80;1.40;;;2.30;99.90;;;;;;5087773;28;20203;-80
2021/04/07 04:22:48;;;;;;;6.90;1.50;;;2.20;99.90;;;;;;5087525;28;20678;-81
2021/04/07 04:25:17;;;;;;;4.60;1.50;;;2.10;99.90;;;;;;5089795;28;20279;-81
2021/04/07 04:27:44;;;;;;;9.13;1.37;;;2.00;99.90;;;;;;5068480;28;20211;-80
2021/04/07 04:30:13;;;;;;;3.83;1.70;;;2.10;99.90;;;;;;5091255;28;20199;-80
2021/04/07 04:32:40;;;;;;;3.07;1.70;;;2.10;99.90;;;;;;5092109;28;20260;-81
2021/04/07 04:35:08;;;;;;;2.73;1.33;;;2.00;99.90;;;;;;5081961;28;20562;-81
2021/04/07 04:37:35;;;;;;;6.10;1.63;;;1.90;99.90;;;;;;5083112;28;20973;-82
2021/04/07 04:40:01;;;;;;;5.17;1.67;;;2.00;99.90;;;;;;5089845;28;20215;-79
2021/04/07 04:42:28;;;;;;;6.70;2.00;;;2.00;99.90;;;;;;5073451;28;20207;-79
2021/04/07 04:44:54;;;;;;;3.87;1.27;;;2.00;99.90;;;;;;5069385;28;20285;-82
2021/04/07 04:47:20;;;;;;;2.73;1.30;;;1.80;99.90;;;;;;5070060;28;20203;-80
2021/04/07 04:49:51;;;;;;;5.33;1.50;;;1.80;99.90;;;;;;5085329;28;20301;-81
2021/04/07 04:52:21;;;;;;;4.93;1.30;;;1.80;99.90;;;;;;5087341;28;20202;-79
2021/04/07 04:54:48;;;;;;;6.77;1.60;;;1.80;99.90;;;;;;5100963;27;20238;-79
2021/04/07 04:57:15;;;;;;;3.33;1.67;;;1.80;99.90;;;;;;5088765;28;20211;-82
2021/04/07 04:59:42;;;;;;;4.73;2.33;;;1.60;99.90;;;;;;5089345;28;20276;-79
2021/04/07 05:02:08;;;;;;;3.77;2.37;;;1.60;99.90;;;;;;5098663;28;20196;-80
2021/04/07 05:04:35;;;;;;;9.27;2.30;;;1.50;99.90;;;;;;5085897;28;20222;-79
2021/04/07 05:07:02;;;;;;;4.13;2.57;;;1.60;99.90;;;;;;5086705;28;20226;-81
2021/04/07 05:09:28;;;;;;;3.83;2.47;;;1.60;99.90;;;;;;5091055;28;20886;-80
2021/04/07 05:11:54;;;;;;;3.23;2.40;;;1.70;99.90;;;;;;5088107;28;20284;-81
2021/04/07 05:14:21;;;;;;;3.80;2.20;;;1.50;99.90;;;;;;5086411;28;20339;-81
2021/04/07 05:16:47;;;;;;;9.57;3.33;;;1.60;99.90;;;;;;5088549;28;20275;-80
2021/04/07 05:19:14;;;;;;;3.73;1.80;;;1.60;99.90;;;;;;5086946;28;20203;-81
2021/04/07 05:21:40;;;;;;;3.17;1.67;;;1.50;99.90;;;;;;5081685;28;20239;-81
2021/04/07 05:24:07;;;;;;;4.03;1.43;;;1.50;99.90;;;;;;5082672;28;20203;-80
2021/04/07 05:26:34;;;;;;;2.23;1.60;;;1.60;99.90;;;;;;5062172;28;21712;-80
2021/04/07 05:29:02;;;;;;;2.40;1.57;;;1.60;99.90;;;;;;5084073;28;20203;-82
2021/04/07 05:31:29;;;;;;;3.13;1.40;;;1.50;99.90;;;;;;5069912;28;20256;-82
2021/04/07 05:33:56;;;;;;;2.97;1.87;;;1.60;99.90;;;;;;5086089;28;20293;-81
2021/04/07 05:36:22;;;;;;;3.93;1.50;;;1.60;99.90;;;;;;5087488;28;20279;-82
2021/04/07 05:38:50;;;;;;;5.27;1.60;;;1.50;99.90;;;;;;5087271;28;20214;-80
2021/04/07 05:41:17;;;;;;;3.40;2.00;;;1.70;99.90;;;;;;5080356;28;20225;-81
2021/04/07 05:43:49;;;;;;;3.30;2.10;;;1.40;99.90;;;;;;5090482;28;20338;-81
2021/04/07 05:46:15;;;;;;;2.33;1.73;;;1.30;99.90;;;;;;5088493;28;20200;-79
2021/04/07 05:48:42;;;;;;;3.97;1.37;;;1.30;99.90;;;;;;5085394;28;20253;-80
2021/04/07 05:51:09;;;;;;;1.83;1.20;;;1.30;99.90;;;;;;5080943;28;20210;-80
2021/04/07 05:53:36;;;;;;;3.23;1.93;;;1.20;99.90;;;;;;5090106;28;20206;-80
2021/04/07 05:56:22;;;;;;;4.33;1.43;;;1.20;99.90;;;;;;5086451;28;20217;-80
2021/04/07 05:58:49;;;;;;;2.70;1.23;;;1.20;99.90;;;;;;5084701;28;20267;-80
2021/04/07 06:01:15;;;;;;;1.40;0.93;;;1.30;99.90;;;;;;5063510;28;20662;-81
2021/04/07 06:03:41;;;;;;;2.67;1.33;;;1.20;99.90;;;;;;5068028;28;20198;-82
2021/04/07 06:06:08;;;;;;;2.73;1.23;;;1.20;99.90;;;;;;5089359;28;20276;-81
2021/04/07 06:08:34;;;;;;;2.40;1.33;;;1.20;99.90;;;;;;5087138;28;20203;-80
2021/04/07 06:11:03;;;;;;;3.47;1.20;;;1.30;99.90;;;;;;5087499;28;20203;-81
2021/04/07 06:13:29;;;;;;;4.03;1.43;;;1.30;99.90;;;;;;5099761;28;20207;-80
2021/04/07 06:15:56;;;;;;;2.40;1.10;;;1.30;99.90;;;;;;5084173;28;20603;-81
2021/04/07 06:18:22;;;;;;;2.10;1.13;;;1.30;99.90;;;;;;5082212;28;20211;-81
2021/04/07 06:20:50;;;;;;;4.57;1.70;;;1.40;99.90;;;;;;5088675;28;20662;-82
2021/04/07 06:23:20;;;;;;;2.80;1.57;;;1.40;99.90;;;;;;5088146;28;20664;-82
2021/04/07 06:25:47;;;;;;;3.27;1.57;;;1.50;99.90;;;;;;5086981;28;20198;-83
2021/04/07 06:28:15;;;;;;;3.77;1.87;;;1.40;99.90;;;;;;5079487;28;20202;-81
2021/04/07 06:33:21;;;;;;;2.67;1.60;;;1.50;99.90;;;;;;5080055;28;20198;-79
2021/04/07 06:35:59;;;;;;;2.67;1.63;;;1.40;99.90;;;;;;5081137;28;20747;-78
2021/04/07 06:38:27;;;;;;;4.50;1.97;;;1.60;99.90;;;;;;5078375;28;20214;-77
2021/04/07 06:40:54;;;;;;;1.63;1.53;;;1.70;99.90;;;;;;5080526;28;20237;-78
2021/04/07 06:43:26;;;;;;;3.53;2.17;;;1.70;99.90;;;;;;5083382;28;20314;-79
2021/04/07 06:45:53;;;;;;;3.20;1.83;;;1.50;99.90;;;;;;5084413;28;20227;-81
2021/04/07 06:48:20;;;;;;;4.60;2.37;;;1.50;99.90;;;;;;5083785;28;20211;-79
2021/04/07 06:50:49;;;;;;;5.23;2.53;;;1.70;99.90;;;;;;5085461;28;20210;-80
2021/04/07 06:53:18;;;;;;;3.47;2.33;;;1.80;99.90;;;;;;5084352;28;20233;-84
2021/04/07 06:55:44;;;;;;;4.20;2.10;;;1.80;99.90;;;;;;5052013;28;20207;-80
2021/04/07 06:58:11;;;;;;;2.00;1.67;;;1.90;99.90;;;;;;5086459;28;20721;-80
2021/04/07 07:00:40;;;;;;;5.17;2.87;;;1.90;99.90;;;;;;5067470;28;20266;-79
2021/04/07 07:03:14;;;;;;;3.60;2.83;;;2.00;99.90;;;;;;5079549;28;20938;-80
2021/04/07 07:05:44;;;;;;;6.00;3.10;;;2.10;99.90;;;;;;5082186;28;20215;-80
2021/04/07 07:08:14;;;;;;;14.40;2.83;;;2.20;99.90;;;;;;5087877;28;20199;-80
2021/04/07 07:10:47;;;;;;;4.23;2.67;;;2.00;99.90;;;;;;5081878;28;20205;-77
2021/04/07 07:13:21;;;;;;;8.50;2.70;;;2.10;99.90;;;;;;5078023;28;20219;-76
2021/04/07 07:15:49;;;;;;;5.77;2.60;;;1.90;99.90;;;;;;5078880;28;20202;-77
2021/04/07 07:18:20;;;;;;;7.77;2.87;;;2.00;99.90;;;;;;5093835;28;20210;-76
2021/04/07 07:20:47;;;;;;;6.27;2.30;;;2.10;99.90;;;;;;5072314;28;20699;-76
2021/04/07 07:23:29;;;;;;;6.83;2.63;;;2.30;99.90;;;;;;5072999;28;20202;-77
2021/04/07 07:26:08;;;;;;;10.87;3.03;;;2.50;99.90;;;;;;5077083;28;20673;-76
2021/04/07 07:28:42;;;;;;;7.70;3.13;;;2.80;99.90;;;;;;5078914;28;20310;-77
2021/04/07 07:31:26;;;;;;;7.37;2.50;;;3.00;99.90;;;;;;5071945;28;20673;-76
2021/04/07 07:33:54;;;;;;;12.23;3.80;;;3.10;99.90;;;;;;5069976;28;20271;-75
2021/04/07 07:36:21;;;;;;;11.53;3.03;;;3.10;99.90;;;;;;5080294;28;20906;-76
2021/04/07 07:38:51;;;;;;;12.57;3.30;;;3.30;99.90;;;;;;5078750;28;20586;-77
2021/04/07 07:41:30;;;;;;;11.87;3.00;;;3.20;99.90;;;;;;5079050;28;20230;-77
2021/04/07 07:44:15;;;;;;;7.70;1.67;;;3.10;99.90;;;;;;5075595;28;20253;-77
2021/04/07 07:46:43;;;;;;;11.43;1.50;;;3.20;99.90;;;;;;5080553;28;20214;-77
2021/04/07 07:49:18;;;;;;;7.07;1.97;;;3.20;99.90;;;;;;5080416;28;20202;-77
2021/04/07 07:51:46;;;;;;;16.43;3.37;;;3.20;99.90;;;;;;5085356;28;20753;-76
2021/04/07 07:54:14;;;;;;;8.20;2.23;;;3.40;99.90;;;;;;5082596;28;20198;-75
2021/04/07 07:56:41;;;;;;;10.80;2.33;;;3.50;99.90;;;;;;5079295;28;20199;-77
2021/04/07 07:59:08;;;;;;;7.93;3.13;;;3.60;99.90;;;;;;5083781;28;20276;-76
2021/04/07 08:01:44;;;;;;;13.20;2.43;;;3.80;99.90;;;;;;5082197;28;20213;-75
2021/04/07 08:04:11;;;;;;;17.57;3.07;;;3.90;99.90;;;;;;5077172;28;20195;-75
2021/04/07 08:06:38;;;;;;;19.07;3.03;;;4.00;99.90;;;;;;5077726;28;20217;-77
2021/04/07 08:09:05;;;;;;;21.67;4.10;;;4.10;99.90;;;;;;5064891;28;20209;-77
2021/04/07 08:11:33;;;;;;;16.77;3.57;;;4.10;99.90;;;;;;5077895;28;20262;-75
2021/04/07 08:14:00;;;;;;;19.20;3.33;;;4.20;99.90;;;;;;5076469;28;20211;-77
2021/04/07 08:16:28;;;;;;;15.30;3.43;;;4.30;99.90;;;;;;5080156;28;20742;-77
2021/04/07 08:18:56;;;;;;;14.07;3.00;;;4.40;99.90;;;;;;5078235;28;20215;-77
2021/04/07 08:21:22;;;;;;;16.47;2.90;;;4.40;99.90;;;;;;5081921;28;20278;-76
2021/04/07 08:24:01;;;;;;;13.90;2.97;;;4.50;99.90;;;;;;5079340;28;20732;-77
2021/04/07 08:26:30;;;;;;;16.60;3.10;;;4.60;99.90;;;;;;5081043;28;20285;-76
2021/04/07 08:28:57;;;;;;;23.23;3.93;;;4.60;99.90;;;;;;5079943;28;20201;-76
2021/04/07 08:31:27;;;;;;;15.23;3.17;;;4.70;99.90;;;;;;5065196;28;20568;-77
2021/04/07 08:33:56;;;;;;;20.17;2.67;;;4.90;99.90;;;;;;5079900;28;20198;-78
2021/04/07 08:36:25;;;;;;;17.27;3.17;;;4.90;99.90;;;;;;5067669;28;20844;-76
2021/04/07 08:39:13;;;;;;;11.13;2.43;;;4.90;99.90;;;;;;5066955;28;20354;-77
2021/04/07 08:41:41;;;;;;;23.17;2.90;;;5.00;99.90;;;;;;5080585;28;20242;-76
2021/04/07 08:44:09;;;;;;;15.77;3.53;;;5.10;99.90;;;;;;5078892;28;20235;-75
2021/04/07 08:46:46;;;;;;;18.30;2.80;;;5.20;99.90;;;;;;5076747;28;20200;-75
2021/04/07 08:49:44;;;;;;;18.07;3.20;;;5.20;99.90;;;;;;5079920;28;20226;-76
2021/04/07 08:52:23;;;;;;;25.77;3.63;;;5.20;99.90;;;;;;5034811;28;20565;-77
2021/04/07 08:54:56;;;;;;;21.80;3.20;;;5.30;99.90;;;;;;5079467;28;20206;-76
2021/04/07 08:57:32;;;;;;;12.67;2.50;;;5.20;99.90;;;;;;5079562;28;20213;-76
2021/04/07 09:00:00;;;;;;;9.63;2.60;;;5.10;99.90;;;;;;5077614;28;20207;-76
2021/04/07 09:02:27;;;;;;;14.23;2.20;;;4.90;99.90;;;;;;5077033;28;20280;-76
2021/04/07 09:05:03;;;;;;;9.00;1.57;;;4.90;99.90;;;;;;5076122;28;20209;-77
2021/04/07 09:07:43;;;;;;;13.77;2.53;;;4.80;99.90;;;;;;5079990;28;20209;-76
2021/04/07 09:10:16;;;;;;;9.90;2.17;;;4.60;99.90;;;;;;5077304;28;20359;-77
2021/04/07 09:12:46;;;;;;;9.30;2.03;;;4.80;99.90;;;;;;5080078;28;20209;-77
2021/04/07 09:15:26;;;;;;;6.47;1.37;;;4.90;99.90;;;;;;5063649;28;20310;-76
2021/04/07 09:17:55;;;;;;;10.03;2.07;;;5.10;99.90;;;;;;5082267;28;20222;-76
2021/04/07 09:20:43;;;;;;;12.70;2.37;;;5.30;99.90;;;;;;5078737;28;20214;-76
2021/04/07 09:23:26;;;;;;;14.27;2.07;;;5.80;99.90;;;;;;5079093;28;20230;-75
2021/04/07 09:26:10;;;;;;;11.60;2.40;;;6.00;99.90;;;;;;5083243;28;20235;-75
2021/04/07 09:28:45;;;;;;;14.53;2.90;;;6.40;99.90;;;;;;5083539;28;20208;-77
2021/04/07 09:31:14;;;;;;;14.30;3.40;;;6.70;99.90;;;;;;5081175;28;20198;-76
2021/04/07 09:33:43;;;;;;;17.33;3.03;;;6.60;99.90;;;;;;5078229;28;20203;-76
2021/04/07 09:36:11;;;;;;;24.40;3.90;;;6.70;99.90;;;;;;5078764;28;20207;-77
2021/04/07 09:38:50;;;;;;;13.23;2.30;;;6.60;99.90;;;;;;5076577;28;20249;-77
2021/04/07 09:41:25;;;;;;;17.27;3.20;;;6.70;99.90;;;;;;5080119;28;20220;-76
2021/04/07 09:43:53;;;;;;;11.23;2.43;;;6.90;99.90;;;;;;5079418;28;20712;-77
2021/04/07 09:46:21;;;;;;;15.43;2.43;;;7.10;99.90;;;;;;5095764;28;20230;-78
2021/04/07 09:48:52;;;;;;;10.07;1.93;;;7.30;99.90;;;;;;5078121;28;20283;-76
2021/04/07 09:51:21;;;;;;;8.57;2.70;;;7.20;99.90;;;;;;5073994;28;22267;-77
2021/04/07 09:54:11;;;;;;;13.53;2.20;;;7.10;99.90;;;;;;5079022;28;20221;-77
2021/04/07 09:57:02;;;;;;;16.87;2.50;;;6.90;99.90;;;;;;5082038;28;20245;-77
2021/04/07 09:59:43;;;;;;;15.10;2.63;;;6.90;99.90;;;;;;5074643;28;20642;-77
2021/04/07 10:02:29;;;;;;;9.97;2.43;;;7.10;99.90;;;;;;5075058;28;20199;-77
2021/04/07 10:05:10;;;;;;;12.87;2.57;;;7.00;99.90;;;;;;5056955;28;20222;-77
2021/04/07 10:07:38;;;;;;;12.00;2.10;;;7.10;99.90;;;;;;5078068;28;20941;-76
2021/04/07 10:10:08;;;;;;;15.20;2.73;;;7.20;99.90;;;;;;5074927;28;20386;-76
2021/04/07 10:12:34;;;;;;;12.60;3.13;;;7.30;99.90;;;;;;5078159;28;20215;-77
2021/04/07 10:15:03;;;;;;;9.03;2.03;;;7.20;99.90;;;;;;5077673;28;20211;-77
2021/04/07 10:17:36;;;;;;;6.43;2.00;;;7.20;99.90;;;;;;5076360;28;20223;-77
2021/04/07 10:20:11;;;;;;;9.43;2.10;;;7.10;99.90;;;;;;5078355;28;20229;-78
2021/04/07 10:22:38;;;;;;;6.23;1.87;;;7.20;99.90;;;;;;5079826;28;20219;-76
2021/04/07 10:25:16;;;;;;;15.00;2.10;;;7.20;99.90;;;;;;5093735;27;20262;-77
2021/04/07 10:27:44;;;;;;;12.60;2.03;;;7.30;99.90;;;;;;5078683;28;20661;-77
2021/04/07 10:30:15;;;;;;;14.10;2.57;;;7.40;99.90;;;;;;5082484;28;20217;-77
2021/04/07 10:32:44;;;;;;;12.17;2.33;;;7.40;99.90;;;;;;5075184;28;20649;-76
2021/04/07 10:35:17;;;;;;;11.30;2.20;;;7.30;99.90;;;;;;5080670;28;20226;-76
2021/04/07 10:38:08;;;;;;;12.27;1.70;;;7.20;99.90;;;;;;5075182;28;20292;-76
2021/04/07 10:40:36;;;;;;;19.97;2.90;;;7.30;99.90;;;;;;5075148;28;20233;-75
2021/04/07 10:43:14;;;;;;;13.67;2.13;;;7.30;99.90;;;;;;5078639;28;20202;-76
2021/04/07 10:45:43;;;;;;;15.87;2.60;;;7.10;99.90;;;;;;5081875;28;20269;-76
2021/04/07 10:48:09;;;;;;;14.63;2.00;;;6.90;99.90;;;;;;5075612;28;20273;-76
2021/04/07 10:50:38;;;;;;;10.17;2.10;;;6.80;99.90;;;;;;5078415;28;20228;-76
2021/04/07 10:53:06;;;;;;;14.87;1.90;;;6.90;99.90;;;;;;5063715;28;20694;-76
2021/04/07 10:55:34;;;;;;;9.23;1.83;;;7.00;99.90;;;;;;5075426;28;20207;-77
2021/04/07 10:58:01;;;;;;;9.30;1.87;;;7.20;99.90;;;;;;5079453;28;21027;-78
2021/04/07 11:00:28;;;;;;;6.63;1.70;;;7.30;99.90;;;;;;5077659;28;20761;-77
2021/04/07 11:02:56;;;;;;;8.20;1.87;;;7.30;99.90;;;;;;5076895;28;20245;-77
2021/04/07 11:05:28;;;;;;;11.97;1.50;;;7.40;99.90;;;;;;5074370;28;20235;-77
2021/04/07 11:08:05;;;;;;;4.57;1.13;;;7.40;99.90;;;;;;5077610;28;20195;-75
2021/04/07 11:10:43;;;;;;;8.93;1.67;;;7.50;99.90;;;;;;5073513;28;22305;-77
2021/04/07 11:13:11;;;;;;;12.60;1.60;;;7.40;99.90;;;;;;5057293;28;20236;-77
2021/04/07 11:15:37;;;;;;;5.00;1.77;;;7.50;99.90;;;;;;5078783;28;20253;-79
2021/04/07 11:18:06;;;;;;;9.03;1.50;;;7.40;99.90;;;;;;5074493;28;20276;-76
2021/04/07 11:20:39;;;;;;;12.47;2.43;;;7.40;99.90;;;;;;5077324;28;20722;-76
2021/04/07 11:23:05;;;;;;;8.93;1.57;;;7.20;99.90;;;;;;5076533;28;20755;-77
2021/04/07 11:25:35;;;;;;;11.40;2.13;;;7.00;99.90;;;;;;5075404;28;20203;-76
2021/04/07 11:28:02;;;;;;;9.60;2.23;;;7.00;99.90;;;;;;5076543;28;20244;-76
2021/04/07 11:30:32;;;;;;;10.60;2.27;;;6.80;99.90;;;;;;5072093;28;20343;-76
2021/04/07 11:33:01;;;;;;;9.43;1.63;;;6.90;99.90;;;;;;5062179;28;20588;-77
2021/04/07 11:35:58;;;;;;;7.40;2.20;;;6.80;99.90;;;;;;5075786;28;20562;-77
2021/04/07 11:38:26;;;;;;;9.40;2.00;;;6.90;99.90;;;;;;5074543;28;20214;-76
2021/04/07 11:41:47;;;;;;;12.83;2.03;;;7.00;99.90;;;;;;5062556;28;20298;-74
2021/04/07 11:46:33;;;;;;;11.70;2.00;;;7.60;99.90;;;;;;5077508;28;20226;-76
2021/04/07 11:48:59;;;;;;;6.10;1.60;;;7.60;99.90;;;;;;5075355;28;20716;-77
2021/04/07 11:51:26;;;;;;;9.47;1.70;;;7.60;99.90;;;;;;5074095;28;20205;-78
2021/04/07 11:53:52;;;;;;;6.50;1.43;;;7.10;99.90;;;;;;5079041;28;20237;-76
2021/04/07 11:56:19;;;;;;;3.70;0.97;;;6.90;99.90;;;;;;5076244;28;20206;-76
2021/04/07 11:58:45;;;;;;;9.07;1.17;;;6.60;99.90;;;;;;5072990;28;20211;-76
2021/04/07 12:01:12;;;;;;;5.10;0.93;;;6.50;99.90;;;;;;5060570;28;20275;-76
2021/04/07 12:03:39;;;;;;;7.03;1.70;;;6.40;99.90;;;;;;5075330;28;20664;-76
2021/04/07 12:06:05;;;;;;;7.73;1.47;;;6.10;99.90;;;;;;5074202;28;20199;-76
2021/04/07 12:08:31;;;;;;;3.27;1.10;;;5.90;99.90;;;;;;5074624;28;20211;-77
2021/04/07 12:10:59;;;;;;;5.53;1.00;;;5.80;99.90;;;;;;5076268;28;20198;-77
2021/04/07 12:13:27;;;;;;;6.00;1.10;;;5.60;99.90;;;;;;5073592;28;20217;-76
2021/04/07 12:15:54;;;;;;;8.50;1.50;;;5.50;99.90;;;;;;5077642;28;20269;-77
2021/04/07 12:18:20;;;;;;;7.57;1.20;;;5.50;99.90;;;;;;5088413;28;20352;-76
2021/04/07 12:20:47;;;;;;;5.67;2.37;;;5.90;99.90;;;;;;5059593;28;20623;-75
2021/04/07 12:23:14;;;;;;;11.13;1.73;;;6.00;99.90;;;;;;5059852;28;20202;-76
2021/04/07 12:25:42;;;;;;;6.93;1.67;;;6.00;99.90;;;;;;5058498;28;20260;-76
2021/04/07 12:28:09;;;;;;;7.90;1.30;;;5.90;99.90;;;;;;5073140;28;20217;-76
2021/04/07 12:30:51;;;;;;;9.90;1.97;;;5.90;99.90;;;;;;5057633;28;20204;-75
2021/04/07 12:33:26;;;;;;;7.97;1.80;;;5.90;99.90;;;;;;5061547;28;20222;-75
2021/04/07 12:35:53;;;;;;;5.23;1.00;;;5.80;99.90;;;;;;5076781;28;20714;-75
2021/04/07 12:38:21;;;;;;;4.10;1.27;;;5.60;99.90;;;;;;5075690;28;20584;-77
2021/04/07 12:40:50;;;;;;;8.43;2.40;;;5.60;99.90;;;;;;5076450;28;20254;-77
2021/04/07 12:43:17;;;;;;;11.93;1.67;;;6.10;99.90;;;;;;5078891;28;20206;-75
2021/04/07 12:45:43;;;;;;;5.83;1.20;;;6.10;99.90;;;;;;5076866;28;20288;-75
2021/04/07 12:48:10;;;;;;;5.93;0.87;;;5.60;99.90;;;;;;5074953;28;20213;-74
2021/04/07 12:50:37;;;;;;;4.23;0.90;;;5.40;99.90;;;;;;5076117;28;20213;-77
2021/04/07 12:53:04;;;;;;;4.07;1.50;;;5.40;99.90;;;;;;5078416;28;20706;-77
2021/04/07 12:55:31;;;;;;;2.47;0.80;;;5.40;99.90;;;;;;5078755;28;20234;-77
2021/04/07 12:58:01;;;;;;;8.93;1.47;;;5.50;99.90;;;;;;5078908;28;20218;-77
2021/04/07 13:00:28;;;;;;;9.20;1.33;;;5.40;99.90;;;;;;5072124;28;20261;-75
2021/04/07 13:02:55;;;;;;;10.63;1.50;;;5.50;99.90;;;;;;5066542;28;20202;-75
2021/04/07 13:05:22;;;;;;;9.43;1.87;;;5.60;99.90;;;;;;5077978;28;20208;-75
2021/04/07 13:07:48;;;;;;;12.23;2.80;;;5.70;99.90;;;;;;5078713;28;20616;-74
2021/04/07 13:10:22;;;;;;;10.47;1.93;;;6.00;99.90;;;;;;5077961;28;20732;-77
2021/04/07 13:12:49;;;;;;;8.70;2.43;;;6.40;99.90;;;;;;5076274;28;20210;-74